< < Back
Terminal Aerodrome Forecast


Current Version              Previous Versions:   1  2  3  4  5  6  7  8  9  

Terminal Aerodrome Forecast

110
FTUS44 KBMX 301120
TAFANB
TAF
KANB 301120Z 3012/3112 13005KT P6SM SCT050=

Latest METAR

882
SAUS70 KWBC 301200 RRF
MTRANB
METAR KANB 301153Z AUTO 07003KT 10SM CLR 19/17 A3015 RMK AO2 SLP202
T01890172 10200 20172 51009


USA.gov is the U.S. government's official web portal to all federal, state and local government web resources and services.